Time;durP1;ratioP1;P1;durP2;ratioP2;P2;SDS_P1;SDS_P2;PMS_P1;PMS_P2;Temp;Humidity;BMP_temperature;BMP_pressure;BME280_temperature;BME280_humidity;BME280_pressure;Samples;Min_cycle;Max_cycle;Signal;HPM_P1;HPM_P2
2022/07/18 00:01:45;;;;;;;;;4.75;4.75;;;;;24.49;37.23;101645.28;5112436;27;45021;-82
2022/07/18 00:04:10;;;;;;;;;7.00;6.50;;;;;24.27;37.50;101612.25;5114969;27;44921;-81
2022/07/18 00:06:35;;;;;;;;;5.00;5.00;;;;;24.34;37.62;101631.03;5110401;27;45424;-82
2022/07/18 00:09:01;;;;;;;;;7.00;6.00;;;;;24.34;37.75;101630.13;5113578;27;45844;-82
2022/07/18 00:11:27;;;;;;;;;6.00;6.00;;;;;24.24;37.90;101615.88;5113452;27;44986;-82
2022/07/18 00:13:52;;;;;;;;;5.00;5.00;;;;;24.30;37.67;101631.94;5112726;27;44999;-82
2022/07/18 00:16:19;;;;;;;;;5.00;5.00;;;;;24.30;37.92;101639.13;5112420;27;45165;-83
2022/07/18 00:18:44;;;;;;;;;7.25;6.25;;;;;24.23;38.15;101637.38;5108997;27;46661;-81
2022/07/18 00:21:10;;;;;;;;;7.50;7.00;;;;;24.00;37.80;101598.16;5113371;27;45032;-82
2022/07/18 00:23:36;;;;;;;;;7.00;7.00;;;;;24.07;38.37;101616.00;5112565;27;45221;-83
2022/07/18 00:26:02;;;;;;;;;6.25;6.00;;;;;24.11;38.35;101627.63;5113719;27;45062;-83
2022/07/18 00:28:28;;;;;;;;;7.50;7.25;;;;;23.99;38.70;101619.63;5111218;27;45245;-81
2022/07/18 00:30:53;;;;;;;;;6.75;6.75;;;;;23.75;38.84;101585.81;5113168;27;45153;-81
2022/07/18 00:33:18;;;;;;;;;7.75;7.00;;;;;23.79;39.44;101601.88;5112811;27;44896;-82
2022/07/18 00:35:44;;;;;;;;;6.25;6.00;;;;;23.81;38.56;101620.66;5112417;27;45281;-83
2022/07/18 00:38:09;;;;;;;;;8.00;8.00;;;;;23.84;38.90;101634.03;5112533;27;47387;-82
2022/07/18 00:40:34;;;;;;;;;8.00;7.00;;;;;23.76;39.16;101626.06;5114125;27;44999;-82
2022/07/18 00:43:00;;;;;;;;;6.50;5.00;;;;;23.75;38.30;101612.66;5113859;27;45020;-81
2022/07/18 00:45:25;;;;;;;;;7.50;7.50;;;;;23.82;39.25;101625.13;5111928;27;44920;-83
2022/07/18 00:47:51;;;;;;;;;8.50;7.50;;;;;23.76;39.09;101619.78;5126876;27;46092;-82
2022/07/18 00:50:17;;;;;;;;;6.75;6.75;;;;;23.80;39.61;101633.19;5111346;27;45017;-83
2022/07/18 00:52:43;;;;;;;;;6.00;6.00;;;;;23.54;39.41;101594.81;5113589;27;45042;-81
2022/07/18 00:55:08;;;;;;;;;6.00;6.00;;;;;23.63;39.25;101624.28;5112345;27;45498;-82
2022/07/18 00:57:34;;;;;;;;;5.50;5.50;;;;;23.49;39.91;101600.19;5112960;27;45523;-82
2022/07/18 01:02:44;;;;;;;;;7.00;6.00;;;;;23.33;39.78;101579.72;5110171;27;45206;-82
2022/07/18 01:05:09;;;;;;;;;6.50;6.50;;;;;23.26;40.17;101581.53;5114117;27;44937;-82
2022/07/18 01:07:36;;;;;;;;;6.50;6.50;;;;;23.36;40.10;101598.50;5113314;27;45513;-83
2022/07/18 01:10:02;;;;;;;;;8.00;7.25;;;;;23.33;40.36;101595.81;5129529;27;45129;-83
2022/07/18 01:12:27;;;;;;;;;6.00;6.00;;;;;23.32;40.20;101604.78;5125392;27;45256;-82
2022/07/18 01:14:53;;;;;;;;;7.00;7.00;;;;;23.28;40.13;101600.31;5111230;27;45190;-83
2022/07/18 01:17:19;;;;;;;;;7.50;7.50;;;;;23.42;40.38;101619.94;5109501;27;45660;-82
2022/07/18 01:19:46;;;;;;;;;8.75;7.75;;;;;23.11;40.41;101584.28;5109859;27;45066;-81
2022/07/18 01:22:14;;;;;;;;;8.50;8.00;;;;;23.19;40.09;101601.22;5127680;27;45055;-81
2022/07/18 01:24:40;;;;;;;;;8.00;8.00;;;;;23.29;40.79;101618.19;5112686;27;45011;-82
2022/07/18 01:27:06;;;;;;;;;7.75;7.25;;;;;23.29;40.90;101628.91;5109311;27;46946;-81
2022/07/18 01:29:31;;;;;;;;;6.50;6.00;;;;;23.10;40.35;101598.56;5112696;27;44933;-83
2022/07/18 01:32:04;;;;;;;;;6.00;6.00;;;;;23.18;40.97;101616.44;5112310;27;45158;-81
2022/07/18 01:34:29;;;;;;;;;6.50;6.25;;;;;23.04;40.51;101607.53;5112645;27;44925;-81
2022/07/18 01:36:54;;;;;;;;;7.50;6.75;;;;;23.05;41.11;101622.72;5112248;27;45684;-82
2022/07/18 01:39:20;;;;;;;;;7.25;6.75;;;;;22.96;41.12;101603.13;5111204;27;52106;-81
2022/07/18 01:41:45;;;;;;;;;6.25;6.25;;;;;23.03;41.35;101620.97;5111124;27;45544;-81
2022/07/18 01:44:10;;;;;;;;;7.75;7.25;;;;;22.83;41.35;101592.38;5110314;27;45016;-81
2022/07/18 01:46:36;;;;;;;;;5.00;4.00;;;;;22.87;41.49;101595.94;5110010;27;45580;-81
2022/07/18 01:49:02;;;;;;;;;7.00;7.00;;;;;22.84;41.42;101601.31;5109383;27;44973;-81
2022/07/18 01:51:28;;;;;;;;;8.00;7.25;;;;;22.73;41.24;101589.72;5128610;27;45086;-81
2022/07/18 01:53:57;;;;;;;;;6.00;6.00;;;;;22.82;41.68;101619.19;5112012;27;45420;-82
2022/07/18 01:56:24;;;;;;;;;6.25;6.25;;;;;22.86;41.54;101624.53;5112040;27;45367;-81
2022/07/18 01:58:49;;;;;;;;;8.75;7.00;;;;;22.77;41.68;101612.94;5113085;27;45801;-82
2022/07/18 02:01:15;;;;;;;;;6.25;6.00;;;;;22.80;42.06;101618.28;5112627;27;45292;-81
2022/07/18 02:03:40;;;;;;;;;6.00;6.00;;;;;22.62;42.40;101597.78;5126860;27;45237;-83
2022/07/18 02:06:05;;;;;;;;;6.25;5.75;;;;;22.64;41.80;101609.38;5107469;27;45167;-82
2022/07/18 02:08:30;;;;;;;;;5.75;5.00;;;;;22.57;42.40;101597.78;5111830;27;44929;-82
2022/07/18 02:10:56;;;;;;;;;6.00;6.00;;;;;22.66;42.43;101613.84;5110031;27;44988;-81
2022/07/18 02:13:22;;;;;;;;;7.75;7.25;;;;;22.27;41.95;101546.94;5111981;27;45243;-81
2022/07/18 02:15:47;;;;;;;;;6.00;6.00;;;;;22.49;42.69;101596.91;5125935;27;47363;-81
2022/07/18 02:18:12;;;;;;;;;8.00;7.00;;;;;22.46;42.47;101586.16;5110120;27;45165;-81
2022/07/18 02:20:38;;;;;;;;;6.50;5.50;;;;;22.35;42.36;101582.63;5113005;27;45028;-81
2022/07/18 02:23:04;;;;;;;;;5.75;5.50;;;;;22.38;43.10;101582.63;5110264;27;45068;-82
2022/07/18 02:25:29;;;;;;;;;6.00;6.00;;;;;22.30;43.12;101568.34;5111905;27;45650;-81
2022/07/18 02:27:55;;;;;;;;;7.25;6.25;;;;;22.20;43.35;101551.38;5110969;27;45030;-82
2022/07/18 02:30:21;;;;;;;;;7.25;7.00;;;;;22.26;43.16;101556.72;5112396;27;45097;-81
2022/07/18 02:32:46;;;;;;;;;6.00;6.00;;;;;22.30;43.38;101568.34;5111444;27;45081;-81
2022/07/18 02:35:12;;;;;;;;;7.00;7.00;;;;;22.37;43.89;101583.53;5106916;27;45679;-81
2022/07/18 02:37:38;;;;;;;;;5.00;4.50;;;;;22.38;43.40;101591.56;5108116;27;45027;-81
2022/07/18 02:40:09;;;;;;;;;5.00;5.00;;;;;22.37;43.52;101596.91;5108194;27;45317;-81
2022/07/18 02:42:34;;;;;;;;;6.00;6.00;;;;;22.34;43.49;101591.56;5109337;27;45197;-80
2022/07/18 02:44:59;;;;;;;;;5.50;5.25;;;;;22.12;43.38;101556.75;5106863;27;45447;-82
2022/07/18 02:47:25;;;;;;;;;8.00;7.75;;;;;22.07;43.51;101549.59;5126637;27;47971;-82
2022/07/18 02:49:50;;;;;;;;;5.25;5.25;;;;;22.16;43.39;101587.06;5111970;27;45162;-81
2022/07/18 02:52:16;;;;;;;;;6.50;6.00;;;;;22.16;43.74;101589.75;5111754;27;45081;-82
2022/07/18 02:54:41;;;;;;;;;6.00;5.50;;;;;22.11;43.77;101581.72;5125635;27;47191;-81
2022/07/18 02:57:07;;;;;;;;;7.00;7.00;;;;;21.98;44.00;101554.94;5111488;27;45096;-81
2022/07/18 02:59:32;;;;;;;;;7.75;6.25;;;;;22.10;43.94;101584.38;5126614;27;45136;-80
2022/07/18 03:01:58;;;;;;;;;5.75;5.75;;;;;22.03;44.18;101574.56;5109198;27;45254;-82
2022/07/18 03:04:24;;;;;;;;;7.00;7.00;;;;;22.05;44.43;101595.06;5108894;27;45458;-81
2022/07/18 03:06:50;;;;;;;;;5.50;5.50;;;;;21.97;44.67;101583.47;5110997;27;45236;-81
2022/07/18 03:09:16;;;;;;;;;6.00;6.00;;;;;21.96;43.98;101592.38;5127225;27;45129;-81
2022/07/18 03:11:42;;;;;;;;;5.75;5.00;;;;;22.00;44.33;101602.19;5111002;27;45134;-80
2022/07/18 03:14:07;;;;;;;;;9.25;7.00;;;;;21.81;44.47;101578.97;5108739;27;45371;-81
2022/07/18 03:16:36;;;;;;;;;7.25;7.00;;;;;21.92;44.49;101603.06;5127178;27;45167;-81
2022/07/18 03:19:02;;;;;;;;;7.75;7.50;;;;;21.93;44.91;101607.56;5112430;27;44961;-80
2022/07/18 03:21:28;;;;;;;;;7.25;7.00;;;;;21.79;44.45;101592.38;5114187;27;45042;-83
2022/07/18 03:23:54;;;;;;;;;6.00;5.75;;;;;21.86;44.71;101602.19;5113451;27;45748;-81
2022/07/18 03:26:19;;;;;;;;;7.00;6.50;;;;;21.63;45.03;101574.50;5112072;27;45178;-81
2022/07/18 03:28:45;;;;;;;;;6.00;5.00;;;;;21.66;45.48;101590.53;5110555;27;45285;-80
2022/07/18 03:31:11;;;;;;;;;6.25;6.00;;;;;21.64;45.10;101582.53;5114598;27;45268;-83
2022/07/18 03:33:36;;;;;;;;;8.50;7.50;;;;;21.52;45.33;101569.09;5130319;27;47219;-84
2022/07/18 03:36:02;;;;;;;;;6.00;6.00;;;;;21.50;45.37;101560.19;5115082;27;45086;-86
2022/07/18 03:38:27;;;;;;;;;8.75;7.75;;;;;21.55;45.49;101568.22;5115024;27;44858;-83
2022/07/18 03:40:52;;;;;;;;;7.50;7.00;;;;;21.50;45.69;101564.66;5114390;27;45125;-81
2022/07/18 03:43:18;;;;;;;;;8.00;7.25;;;;;21.47;45.45;101554.81;5114397;27;46987;-83
2022/07/18 03:45:43;;;;;;;;;7.75;7.25;;;;;21.58;45.69;101584.28;5113799;27;44941;-82
2022/07/18 03:48:08;;;;;;;;;5.25;5.25;;;;;21.50;45.53;101570.88;5112206;27;45013;-81
2022/07/18 03:50:34;;;;;;;;;9.00;8.00;;;;;21.48;46.13;101570.00;5111092;27;45550;-83
2022/07/18 03:52:59;;;;;;;;;6.00;5.00;;;;;21.44;46.17;101562.84;5112809;27;45429;-82
2022/07/18 03:55:25;;;;;;;;;7.25;6.50;;;;;21.45;46.35;101563.75;5114937;27;44958;-84
2022/07/18 03:57:50;;;;;;;;;8.50;7.75;;;;;21.48;46.46;101566.44;5114796;27;45048;-85
2022/07/18 04:00:16;;;;;;;;;7.25;6.50;;;;;21.48;46.15;101563.75;5114599;27;45112;-83
2022/07/18 04:02:43;;;;;;;;;7.25;7.00;;;;;21.39;46.53;101543.22;5113124;27;45303;-84
2022/07/18 04:05:09;;;;;;;;;6.50;5.75;;;;;21.45;46.10;101553.94;5128401;27;45601;-83
2022/07/18 04:07:35;;;;;;;;;5.25;5.25;;;;;21.46;46.48;101561.06;5129683;27;45035;-83
2022/07/18 04:10:01;;;;;;;;;7.75;7.00;;;;;21.38;46.49;101539.66;5114850;27;45102;-83
2022/07/18 04:12:26;;;;;;;;;6.00;6.00;;;;;21.49;46.20;101563.75;5112824;27;47335;-83
2022/07/18 04:14:51;;;;;;;;;5.75;5.25;;;;;21.36;46.54;101546.78;5114510;27;45121;-82
2022/07/18 04:17:17;;;;;;;;;6.00;6.00;;;;;21.44;46.26;101561.97;5113669;27;45337;-83
2022/07/18 04:19:42;;;;;;;;;7.75;6.50;;;;;21.31;46.69;101544.97;5114294;27;44836;-83
2022/07/18 04:22:07;;;;;;;;;6.50;6.50;;;;;21.24;46.66;101543.16;5111833;27;45563;-83
2022/07/18 04:24:33;;;;;;;;;8.50;7.25;;;;;21.41;46.24;101576.19;5112954;27;45220;-85
2022/07/18 04:26:58;;;;;;;;;9.00;8.75;;;;;21.36;46.48;101567.28;5113413;27;44883;-83
2022/07/18 04:29:24;;;;;;;;;6.75;6.50;;;;;21.34;46.67;101564.59;5114371;27;45187;-83
2022/07/18 04:31:49;;;;;;;;;8.00;6.00;;;;;21.31;46.84;101556.56;5129341;27;47907;-84
2022/07/18 04:34:14;;;;;;;;;6.00;5.75;;;;;21.34;46.68;101561.03;5129409;27;45444;-82
2022/07/18 04:36:40;;;;;;;;;6.00;5.75;;;;;21.44;46.84;101584.25;5109922;27;45337;-84
2022/07/18 04:39:05;;;;;;;;;6.00;6.00;;;;;21.46;47.06;101581.56;5111139;27;45217;-84
2022/07/18 04:41:30;;;;;;;;;5.33;5.00;;;;;21.34;46.83;101572.63;5111418;27;50639;-83
2022/07/18 04:43:56;;;;;;;;;7.00;7.00;;;;;21.35;46.88;101570.84;5113743;27;45245;-83
2022/07/18 04:46:21;;;;;;;;;9.00;8.00;;;;;21.24;47.01;101553.84;5113871;27;45035;-84
2022/07/18 04:48:46;;;;;;;;;6.50;6.00;;;;;21.41;47.25;101562.81;5113017;27;45266;-84
2022/07/18 04:51:12;;;;;;;;;6.25;6.25;;;;;21.30;47.39;101535.13;5107661;27;45364;-85
2022/07/18 04:53:37;;;;;;;;;7.25;7.25;;;;;21.46;47.47;101555.72;5112650;27;45145;-85
2022/07/18 04:56:03;;;;;;;;;8.50;7.00;;;;;21.37;47.45;101528.94;5110949;27;45064;-85
2022/07/18 04:58:28;;;;;;;;;7.25;6.50;;;;;21.51;47.68;101539.69;5114002;27;45291;-84
2022/07/18 05:00:55;;;;;;;;;6.75;6.75;;;;;21.44;48.20;101528.09;5111093;27;47067;-85
2022/07/18 05:03:21;;;;;;;;;6.50;6.50;;;;;21.56;47.96;101553.94;5111591;27;45166;-84
2022/07/18 05:05:46;;;;;;;;;7.00;7.00;;;;;21.46;47.99;101528.97;5114530;27;45008;-85
2022/07/18 05:08:13;;;;;;;;;7.25;6.50;;;;;21.50;47.78;101533.44;5123887;27;45505;-85
2022/07/18 05:10:39;;;;;;;;;7.25;7.25;;;;;21.54;47.94;101527.22;5113724;27;45473;-84
2022/07/18 05:13:04;;;;;;;;;8.00;8.00;;;;;21.57;47.97;101513.81;5112154;27;45167;-84
2022/07/18 05:15:30;;;;;;;;;7.00;7.00;;;;;21.68;47.88;101524.56;5112937;27;44895;-85
2022/07/18 05:17:55;;;;;;;;;8.00;7.25;;;;;21.81;48.42;101530.81;5112114;27;45031;-85
2022/07/18 05:20:23;;;;;;;;;7.00;7.00;;;;;21.59;48.00;101496.00;5113436;27;45681;-84
2022/07/18 05:22:51;;;;;;;;;8.25;8.25;;;;;21.69;48.30;101504.06;5128299;27;45587;-85
2022/07/18 05:25:17;;;;;;;;;9.00;8.75;;;;;21.71;48.06;101497.78;5113531;27;45161;-85
2022/07/18 05:27:42;;;;;;;;;10.75;9.00;;;;;21.91;48.08;101519.22;5108473;27;45277;-85
2022/07/18 05:30:11;;;;;;;;;8.00;7.00;;;;;21.94;48.31;101504.94;5109489;27;45533;-85
2022/07/18 05:32:37;;;;;;;;;8.50;7.50;;;;;21.94;48.29;101499.59;5109025;27;45238;-85
2022/07/18 05:35:03;;;;;;;;;7.00;6.75;;;;;22.09;48.14;101516.53;5112997;27;45059;-85
2022/07/18 05:37:28;;;;;;;;;7.25;7.25;;;;;22.03;48.49;101494.25;5111859;27;45030;-85
2022/07/18 05:39:53;;;;;;;;;10.50;10.00;;;;;22.07;48.33;101501.38;5112991;27;45077;-84
2022/07/18 05:42:19;;;;;;;;;8.00;7.00;;;;;21.97;48.38;101467.47;5113367;27;44967;-83
2022/07/18 05:44:45;;;;;;;;;9.00;9.00;;;;;22.17;48.03;101488.88;5113402;27;45118;-85
2022/07/18 05:47:10;;;;;;;;;8.25;8.00;;;;;22.40;46.76;101506.72;5111970;27;45232;-85
2022/07/18 05:49:36;;;;;;;;;6.25;6.25;;;;;22.42;47.09;101493.34;5112411;27;45916;-83
2022/07/18 05:52:01;;;;;;;;;7.75;7.25;;;;;22.20;47.18;101433.56;5113210;27;45134;-84
2022/07/18 05:54:27;;;;;;;;;5.50;5.50;;;;;22.46;46.17;101480.81;5110613;27;44968;-83
2022/07/18 05:56:53;;;;;;;;;8.50;7.25;;;;;22.53;46.51;101501.34;5112036;27;45225;-85
2022/07/18 05:59:20;;;;;;;;;5.00;5.00;;;;;22.76;44.27;101546.81;5110613;27;45585;-83
2022/07/18 06:01:46;;;;;;;;;4.50;4.50;;;;;22.83;44.02;101559.31;5112205;27;45288;-83
2022/07/18 06:04:11;;;;;;;;;6.00;6.00;;;;;22.89;44.05;101553.97;5112688;27;44996;-85
2022/07/18 06:06:37;;;;;;;;;8.00;7.00;;;;;22.83;44.12;101520.00;5109862;27;45361;-83
2022/07/18 06:09:03;;;;;;;;;5.00;5.00;;;;;23.08;44.59;101544.97;5108570;27;45454;-83
2022/07/18 06:11:29;;;;;;;;;7.00;6.00;;;;;23.06;43.43;101540.53;5108527;27;45514;-84
2022/07/18 06:13:55;;;;;;;;;7.00;6.50;;;;;23.05;43.25;101536.91;5110961;27;45004;-84
2022/07/18 06:16:20;;;;;;;;;6.00;6.00;;;;;23.16;42.84;101535.09;5110118;27;44886;-85
2022/07/18 06:18:48;;;;;;;;;5.00;4.25;;;;;23.14;43.01;101517.22;5112306;27;45589;-84
2022/07/18 06:21:14;;;;;;;;;5.75;5.75;;;;;23.31;43.54;101530.56;5109368;27;45268;-85
2022/07/18 06:23:40;;;;;;;;;5.00;5.00;;;;;23.24;43.25;101508.22;5110055;27;44906;-85
2022/07/18 06:26:05;;;;;;;;;5.50;5.50;;;;;23.46;43.24;101541.19;5112260;27;45120;-84
2022/07/18 06:28:31;;;;;;;;;5.50;5.50;;;;;23.43;43.05;101543.91;5127326;27;47383;-84
2022/07/18 06:30:57;;;;;;;;;6.25;6.25;;;;;23.54;43.15;101550.06;5110512;27;45576;-84
2022/07/18 06:33:22;;;;;;;;;6.00;5.50;;;;;23.51;42.50;101541.19;5111758;27;44999;-83
2022/07/18 06:35:48;;;;;;;;;5.50;4.25;;;;;23.49;42.34;101519.69;5107786;27;45394;-84
2022/07/18 06:38:15;;;;;;;;;6.50;6.00;;;;;23.41;42.79;101503.66;5109778;27;45487;-83
2022/07/18 06:40:41;;;;;;;;;6.50;5.50;;;;;23.64;42.11;101530.41;5112758;27;45649;-83
2022/07/18 06:43:06;;;;;;;;;5.75;5.00;;;;;23.76;42.19;101547.31;5107604;27;45002;-84
2022/07/18 06:45:32;;;;;;;;;4.00;4.00;;;;;23.74;41.76;101543.72;5111712;27;45010;-84
2022/07/18 06:47:58;;;;;;;;;5.25;3.75;;;;;23.75;42.30;101538.38;5124850;27;47214;-83
2022/07/18 06:50:23;;;;;;;;;4.50;4.50;;;;;23.84;40.97;101537.38;5110104;27;44924;-83
2022/07/18 06:52:48;;;;;;;;;4.75;4.00;;;;;23.84;40.75;101542.75;5104362;27;45321;-85
2022/07/18 06:55:14;;;;;;;;;5.75;4.00;;;;;23.89;40.61;101549.91;5112169;27;44933;-83
2022/07/18 06:57:41;;;;;;;;;4.00;4.00;;;;;23.99;40.83;101560.53;5111377;27;45974;-83
2022/07/18 07:00:08;;;;;;;;;3.75;3.75;;;;;24.01;41.03;101561.44;5108397;27;45526;-83
2022/07/18 07:02:34;;;;;;;;;4.75;4.25;;;;;23.90;41.24;101534.69;5109964;27;45187;-84
2022/07/18 07:05:00;;;;;;;;;6.00;6.00;;;;;24.14;41.23;101561.34;5109191;27;45008;-83
2022/07/18 07:07:25;;;;;;;;;5.75;5.00;;;;;24.20;41.07;101563.97;5111020;27;45857;-84
2022/07/18 07:09:51;;;;;;;;;3.25;3.25;;;;;24.13;39.88;101534.47;5111518;27;45086;-83
2022/07/18 07:12:16;;;;;;;;;5.00;5.00;;;;;24.12;40.30;101525.53;5111586;27;44987;-84
2022/07/18 07:14:42;;;;;;;;;4.75;4.75;;;;;24.31;39.32;101544.16;5111790;27;45192;-83
2022/07/18 07:17:07;;;;;;;;;4.25;3.25;;;;;24.20;40.20;101522.78;5110967;27;45195;-83
2022/07/18 07:19:32;;;;;;;;;6.00;4.00;;;;;24.38;39.66;101545.91;5108385;27;45118;-85
2022/07/18 07:21:58;;;;;;;;;4.25;3.00;;;;;24.35;39.85;101538.75;5108061;27;45310;-84
2022/07/18 07:24:23;;;;;;;;;4.25;4.25;;;;;24.42;39.70;101535.13;5111830;27;45470;-84
2022/07/18 07:26:48;;;;;;;;;4.00;3.00;;;;;24.45;39.28;101534.22;5110668;27;45443;-85
2022/07/18 07:29:14;;;;;;;;;4.00;4.00;;;;;24.37;40.06;101502.03;5108301;27;45502;-84
2022/07/18 07:31:41;;;;;;;;;5.75;5.25;;;;;24.53;39.77;101520.69;5110565;27;45134;-85
2022/07/18 07:34:06;;;;;;;;;7.00;6.00;;;;;24.73;39.76;101553.66;5108981;27;45091;-84
2022/07/18 07:36:32;;;;;;;;;4.50;4.50;;;;;24.60;39.91;101530.47;5108278;27;45433;-83
2022/07/18 07:38:57;;;;;;;;;5.00;5.00;;;;;24.68;39.60;101528.59;5125970;27;45076;-85
2022/07/18 07:41:23;;;;;;;;;5.00;4.75;;;;;24.78;38.96;101532.06;5111475;27;45004;-85
2022/07/18 07:43:48;;;;;;;;;5.00;5.00;;;;;24.77;39.90;101519.53;5111073;27;45562;-84
2022/07/18 07:46:14;;;;;;;;;5.00;4.25;;;;;24.85;38.55;101514.97;5109250;27;46166;-86
2022/07/18 07:48:39;;;;;;;;;6.25;5.00;;;;;24.80;38.68;101489.91;5108062;27;45388;-83
2022/07/18 07:51:05;;;;;;;;;6.25;6.25;;;;;25.10;38.25;101534.41;5109462;27;45027;-84
2022/07/18 07:53:31;;;;;;;;;5.75;5.50;;;;;25.06;38.65;101520.06;5126879;27;45184;-84
2022/07/18 07:55:57;;;;;;;;;5.50;5.00;;;;;25.14;37.54;101517.31;5109916;27;45340;-84
2022/07/18 07:58:22;;;;;;;;;5.50;4.00;;;;;25.07;37.95;101489.59;5126835;27;45153;-84
2022/07/18 08:00:48;;;;;;;;;6.00;6.00;;;;;25.24;37.21;101508.19;5110661;27;45283;-84
2022/07/18 08:03:13;;;;;;;;;6.25;5.25;;;;;25.29;37.97;101506.34;5127155;27;45478;-85
2022/07/18 08:05:48;;;;;;;;;6.00;6.00;;;;;25.48;37.36;101525.81;5110033;27;45647;-84
2022/07/18 08:08:14;;;;;;;;;5.25;5.00;;;;;25.54;37.49;101517.63;5112704;27;45415;-85
2022/07/18 08:10:39;;;;;;;;;6.00;6.00;;;;;25.55;37.55;101511.34;5114642;27;45045;-84
2022/07/18 08:13:05;;;;;;;;;6.00;5.00;;;;;25.61;37.09;101505.84;5112906;27;45073;-84
2022/07/18 08:15:31;;;;;;;;;6.25;6.25;;;;;25.66;36.86;101495.88;5111775;27;47338;-84
2022/07/18 08:17:56;;;;;;;;;5.50;5.50;;;;;25.70;37.36;101502.13;5112197;27;45126;-84
2022/07/18 08:20:23;;;;;;;;;6.75;6.00;;;;;25.77;36.32;101502.97;5112915;27;45204;-84
2022/07/18 08:22:52;;;;;;;;;5.00;5.00;;;;;25.79;36.97;101501.13;5113032;27;45095;-85
2022/07/18 08:25:19;;;;;;;;;6.00;6.00;;;;;25.88;36.48;101501.88;5114250;27;46224;-85
2022/07/18 08:27:44;;;;;;;;;6.50;6.50;;;;;25.85;36.88;101484.88;5129617;27;45416;-84
2022/07/18 08:30:10;;;;;;;;;7.25;7.00;;;;;25.95;37.41;101483.78;5111791;27;45265;-85
2022/07/18 08:32:35;;;;;;;;;5.00;5.00;;;;;26.14;37.31;101514.00;5129496;27;45191;-84
2022/07/18 08:35:01;;;;;;;;;7.25;7.25;;;;;26.20;36.85;101509.38;5113672;27;45586;-84
2022/07/18 08:37:26;;;;;;;;;7.25;7.00;;;;;26.16;37.27;101499.59;5112741;27;45220;-84
2022/07/18 08:39:51;;;;;;;;;9.00;6.00;;;;;26.30;36.73;101504.72;5113250;27;45299;-84
2022/07/18 08:42:22;;;;;;;;;7.75;7.25;;;;;26.23;36.37;101487.78;5112564;27;45222;-86
2022/07/18 08:44:47;;;;;;;;;6.25;6.25;;;;;26.40;36.64;101500.03;5127683;27;47000;-84
2022/07/18 08:47:17;;;;;;;;;7.00;7.00;;;;;26.49;36.72;101502.59;5112023;27;44935;-85
2022/07/18 08:49:43;;;;;;;;;7.00;7.00;;;;;26.58;36.88;101497.03;5112878;27;45011;-81
2022/07/18 08:52:09;;;;;;;;;9.00;8.75;;;;;26.59;37.06;101492.53;5112273;27;44961;-84
2022/07/18 08:54:36;;;;;;;;;6.25;6.00;;;;;26.69;36.82;101503.09;5128821;27;46851;-83
2022/07/18 08:57:01;;;;;;;;;7.00;7.00;;;;;26.70;35.99;101482.44;5113599;27;45319;-84
2022/07/18 08:59:27;;;;;;;;;7.50;7.25;;;;;26.75;36.08;101483.22;5112420;27;45329;-85
2022/07/18 09:01:52;;;;;;;;;8.00;7.00;;;;;26.82;36.19;101487.56;5129272;27;45253;-85
2022/07/18 09:04:40;;;;;;;;;6.00;6.00;;;;;26.96;36.48;101506.16;5112833;27;45915;-84
2022/07/18 09:07:10;;;;;;;;;7.00;7.00;;;;;26.89;36.27;101480.22;5110445;27;45225;-84
2022/07/18 09:09:37;;;;;;;;;9.00;7.00;;;;;26.96;37.08;101488.16;5112268;27;45188;-85
2022/07/18 09:12:04;;;;;;;;;6.25;6.25;;;;;27.01;36.38;101488.06;5124756;27;45256;-84
2022/07/18 09:14:41;;;;;;;;;7.25;7.00;;;;;27.15;35.82;101495.91;5129033;27;47266;-84
2022/07/18 09:17:18;;;;;;;;;8.75;7.75;;;;;27.10;36.31;101487.03;5113400;27;45188;-84
2022/07/18 09:20:05;;;;;;;;;10.00;9.00;;;;;27.18;35.54;101495.81;5113097;27;45006;-85
2022/07/18 09:22:49;;;;;;;;;8.25;8.00;;;;;27.22;35.92;101482.22;5113320;27;45224;-85
2022/07/18 09:25:20;;;;;;;;;7.50;7.25;;;;;27.42;35.94;101510.56;5113002;27;45857;-85
2022/07/18 09:27:52;;;;;;;;;8.50;7.25;;;;;27.50;35.40;101509.47;5111851;27;45233;-85
2022/07/18 09:30:29;;;;;;;;;7.25;7.25;;;;;27.57;35.01;101502.09;5128364;27;44936;-85
2022/07/18 09:33:07;;;;;;;;;9.00;8.75;;;;;27.61;35.28;101490.31;5109519;27;45234;-84
2022/07/18 09:35:41;;;;;;;;;7.25;6.25;;;;;27.76;35.65;101506.19;5127757;27;47695;-83
2022/07/18 09:38:09;;;;;;;;;7.00;7.00;;;;;27.80;34.89;101498.00;5127579;27;45578;-84
2022/07/18 09:40:38;;;;;;;;;7.50;7.50;;;;;27.93;35.51;101507.56;5111668;27;45022;-84
2022/07/18 09:43:08;;;;;;;;;8.00;8.00;;;;;27.96;35.10;101504.78;5112043;27;45347;-86
2022/07/18 09:45:35;;;;;;;;;7.75;7.00;;;;;27.91;34.63;101477.88;5128509;27;46984;-86
2022/07/18 09:48:05;;;;;;;;;7.00;6.00;;;;;28.10;34.53;101505.31;5128276;27;45453;-85
2022/07/18 09:50:42;;;;;;;;;6.25;6.25;;;;;28.19;34.89;101509.63;5129039;27;45157;-85
2022/07/18 09:53:19;;;;;;;;;7.00;7.00;;;;;28.28;34.87;101507.56;5112243;27;45431;-85
2022/07/18 09:56:06;;;;;;;;;6.00;6.00;;;;;28.28;33.90;101480.53;5128611;27;47075;-85
2022/07/18 09:58:38;;;;;;;;;7.00;7.00;;;;;28.47;33.88;101509.78;5123425;27;45493;-86
2022/07/18 10:01:06;;;;;;;;;6.50;6.50;;;;;28.50;33.59;101504.28;5112819;27;44988;-86
2022/07/18 10:03:32;;;;;;;;;8.00;7.25;;;;;28.51;33.40;101495.25;5110907;27;45356;-85
2022/07/18 10:06:00;;;;;;;;;9.25;7.25;;;;;28.60;33.57;101499.50;5109599;27;45102;-85
2022/07/18 10:08:28;;;;;;;;;7.00;7.00;;;;;28.60;33.95;101486.88;5111762;27;45017;-85
2022/07/18 10:10:55;;;;;;;;;7.00;6.50;;;;;28.68;33.35;101482.13;5111586;27;45018;-85
2022/07/18 10:13:23;;;;;;;;;6.00;6.00;;;;;28.83;33.57;101486.22;5111135;27;45336;-84
2022/07/18 10:15:50;;;;;;;;;7.75;7.75;;;;;28.90;34.18;101478.78;5106913;27;47670;-84
2022/07/18 10:18:18;;;;;;;;;7.25;6.75;;;;;29.07;33.67;101494.56;5121640;27;45548;-85
2022/07/18 10:20:57;;;;;;;;;8.25;7.50;;;;;29.02;33.45;101479.34;5112526;27;45142;-84
2022/07/18 10:23:43;;;;;;;;;7.00;7.00;;;;;29.27;32.66;101498.44;5108064;27;45245;-84
2022/07/18 10:26:16;;;;;;;;;5.00;5.00;;;;;29.36;33.10;101497.28;5110964;27;47226;-84
2022/07/18 10:29:00;;;;;;;;;6.00;6.00;;;;;29.45;33.23;101498.78;5125114;27;45216;-84
2022/07/18 10:31:28;;;;;;;;;8.00;7.50;;;;;29.42;32.05;101479.94;5127483;27;45211;-84
2022/07/18 10:34:12;;;;;;;;;6.00;6.00;;;;;29.51;31.57;101479.66;5106311;27;44950;-84
2022/07/18 10:36:50;;;;;;;;;5.75;5.75;;;;;29.48;31.54;101458.94;5112052;27;45890;-84
2022/07/18 10:39:20;;;;;;;;;7.25;7.00;;;;;29.76;31.61;101487.88;5127460;27;45767;-84
2022/07/18 10:41:46;;;;;;;;;6.00;6.00;;;;;29.85;31.49;101489.38;5126356;27;45062;-86
2022/07/18 10:44:26;;;;;;;;;7.33;7.33;;;;;29.92;31.01;101485.53;5127842;27;45125;-84
2022/07/18 10:47:05;;;;;;;;;7.00;7.00;;;;;30.01;31.20;101485.22;5111675;27;45756;-85
2022/07/18 10:50:00;;;;;;;;;7.00;7.00;;;;;30.12;31.67;101477.59;5127641;27;45492;-85
2022/07/18 10:52:28;;;;;;;;;6.75;6.75;;;;;30.21;31.12;101476.44;5102717;27;45147;-85
2022/07/18 10:55:05;;;;;;;;;6.75;6.75;;;;;30.31;30.98;101475.16;5110305;27;45190;-84
2022/07/18 10:57:38;;;;;;;;;7.75;7.75;;;;;30.36;30.67;101475.88;5110598;27;45402;-82
2022/07/18 11:00:08;;;;;;;;;8.00;7.50;;;;;30.47;31.41;101472.75;5109012;27;45015;-82
2022/07/18 11:02:47;;;;;;;;;7.00;7.00;;;;;30.44;30.34;101443.03;5125357;27;45150;-83
2022/07/18 11:05:25;;;;;;;;;6.25;5.25;;;;;30.65;30.87;101465.78;5127757;27;45475;-84
2022/07/18 11:08:12;;;;;;;;;6.50;6.50;;;;;30.73;30.14;101470.00;5111699;27;45920;-86
2022/07/18 11:10:41;;;;;;;;;5.25;5.25;;;;;30.81;30.37;101465.16;5099570;27;45515;-84
2022/07/18 11:13:24;;;;;;;;;6.00;6.00;;;;;30.92;29.28;101466.56;5108151;27;45336;-84
2022/07/18 11:16:08;;;;;;;;;6.00;6.00;;;;;31.00;29.55;101461.75;5127834;27;45326;-84
2022/07/18 11:18:47;;;;;;;;;7.00;7.00;;;;;31.08;29.30;101462.31;5110693;27;46033;-83
2022/07/18 11:21:32;;;;;;;;;5.00;5.00;;;;;31.14;28.92;101453.06;5127522;27;45080;-84
2022/07/18 11:24:06;;;;;;;;;4.75;4.75;;;;;31.16;29.22;101437.56;5107411;27;45355;-82
2022/07/18 11:26:33;;;;;;;;;5.00;5.00;;;;;31.26;28.58;101436.25;5110206;27;45365;-82
2022/07/18 11:29:03;;;;;;;;;5.00;5.00;;;;;31.37;29.07;101427.69;5110268;27;47756;-82